createdAt,value
2019-03-16T00:00:35.656Z,70.90
2019-03-16T00:03:04.302Z,70.30
2019-03-16T00:05:32.928Z,70.60
2019-03-16T00:08:01.611Z,71.80
2019-03-16T00:10:30.263Z,72.60
2019-03-16T00:12:59.054Z,72.90
2019-03-16T00:15:27.625Z,72.70
2019-03-16T00:17:56.259Z,72.10
2019-03-16T00:20:24.932Z,71.70
2019-03-16T00:22:53.568Z,71.60
2019-03-16T00:25:22.242Z,72.10
2019-03-16T00:27:50.889Z,72.60
2019-03-16T00:30:19.506Z,73.10
2019-03-16T00:32:48.167Z,72.60
2019-03-16T00:35:16.807Z,71.70
2019-03-16T00:37:46.145Z,70.90
2019-03-16T00:40:14.780Z,71.10
2019-03-16T00:42:43.478Z,71.90
2019-03-16T00:45:12.811Z,72.60
2019-03-16T00:47:41.451Z,72.70
2019-03-16T00:50:13.828Z,73.40
2019-03-16T00:52:42.405Z,73.90
2019-03-16T00:55:11.185Z,74.50
2019-03-16T00:57:39.818Z,75.20
2019-03-16T01:00:16.575Z,75.90
2019-03-16T01:02:45.153Z,75.80
2019-03-16T01:05:14.798Z,75.70
2019-03-16T01:07:43.477Z,75.20
2019-03-16T01:10:12.058Z,75.40
2019-03-16T01:12:40.759Z,74.40
2019-03-16T01:15:13.262Z,74.40
2019-03-16T01:17:41.841Z,74.30
2019-03-16T01:20:11.928Z,74.00
2019-03-16T01:22:40.561Z,74.60
2019-03-16T01:25:11.062Z,74.70
2019-03-16T01:27:39.691Z,74.40
2019-03-16T01:30:17.331Z,74.70
2019-03-16T01:32:45.969Z,75.40
2019-03-16T01:35:14.611Z,75.50
2019-03-16T01:37:43.278Z,75.70
2019-03-16T01:40:11.922Z,75.40
2019-03-16T01:42:40.624Z,75.70
2019-03-16T01:45:10.679Z,76.00
2019-03-16T01:47:39.332Z,76.40
2019-03-16T01:50:09.902Z,76.10
2019-03-16T01:52:38.487Z,75.90
2019-03-16T01:55:09.169Z,75.90
2019-03-16T01:57:37.816Z,75.80
2019-03-16T02:00:09.812Z,75.90
2019-03-16T02:02:38.400Z,75.70
2019-03-16T02:05:07.540Z,75.70
2019-03-16T02:07:36.176Z,75.60
2019-03-16T02:10:05.828Z,75.70
2019-03-16T02:12:34.463Z,75.70
2019-03-16T02:15:03.154Z,75.70
2019-03-16T02:17:31.711Z,75.60
2019-03-16T02:20:00.534Z,75.60
2019-03-16T02:22:29.159Z,75.10
2019-03-16T02:24:57.819Z,74.60
2019-03-16T02:27:26.489Z,74.80
2019-03-16T02:29:55.115Z,75.20
2019-03-16T02:32:23.814Z,75.00
2019-03-16T02:34:52.464Z,75.40
2019-03-16T02:37:21.092Z,75.90
2019-03-16T02:39:49.697Z,76.50
2019-03-16T02:42:18.265Z,76.70
2019-03-16T02:44:46.972Z,76.60
2019-03-16T02:47:15.620Z,76.90
2019-03-16T02:49:44.195Z,77.00
2019-03-16T02:52:12.797Z,77.40
2019-03-16T02:54:41.344Z,77.90
2019-03-16T02:57:09.899Z,78.30
2019-03-16T02:59:38.552Z,78.30
2019-03-16T03:02:07.168Z,78.80
2019-03-16T03:04:35.843Z,79.00
2019-03-16T03:07:04.414Z,80.20
2019-03-16T03:09:33.113Z,79.30
2019-03-16T03:12:01.756Z,78.70
2019-03-16T03:14:30.502Z,78.20
2019-03-16T03:16:59.100Z,78.10
2019-03-16T03:19:27.740Z,78.40
2019-03-16T03:21:56.420Z,78.60
2019-03-16T03:24:24.996Z,78.40
2019-03-16T03:26:53.696Z,79.00
2019-03-16T03:29:22.271Z,79.50
2019-03-16T03:31:50.846Z,79.40
2019-03-16T03:34:19.547Z,79.20
2019-03-16T03:36:48.165Z,79.10
2019-03-16T03:39:16.863Z,79.10
2019-03-16T03:41:45.807Z,79.20
2019-03-16T03:44:14.383Z,78.90
2019-03-16T03:46:43.064Z,79.40
2019-03-16T03:49:11.697Z,79.70
2019-03-16T03:51:40.308Z,80.50
2019-03-16T03:54:08.795Z,80.60
2019-03-16T03:56:37.357Z,80.60
2019-03-16T03:59:06.048Z,81.10
2019-03-16T04:01:34.481Z,81.50
2019-03-16T04:04:15.353Z,81.50
2019-03-16T04:06:33.395Z,81.20
2019-03-16T04:09:02.020Z,82.00
2019-03-16T04:11:30.709Z,82.20
2019-03-16T04:13:59.283Z,82.30
2019-03-16T04:16:27.977Z,82.40
2019-03-16T04:18:56.635Z,82.30
2019-03-16T04:21:25.133Z,82.10
2019-03-16T04:23:53.756Z,81.70
2019-03-16T04:26:22.305Z,81.70
2019-03-16T04:28:50.927Z,81.30
2019-03-16T04:31:19.585Z,81.40
2019-03-16T04:33:48.223Z,81.30
2019-03-16T04:36:16.907Z,80.70
2019-03-16T04:38:45.536Z,80.50
2019-03-16T04:41:14.172Z,80.50
2019-03-16T04:43:42.929Z,80.70
2019-03-16T04:46:11.574Z,80.90
2019-03-16T04:48:40.169Z,80.70
2019-03-16T04:51:08.671Z,80.90
2019-03-16T04:53:37.289Z,80.90
2019-03-16T04:56:05.933Z,80.90
2019-03-16T04:58:34.494Z,80.60
2019-03-16T05:01:03.117Z,80.60
2019-03-16T05:03:31.752Z,81.00
2019-03-16T05:06:00.373Z,81.90
2019-03-16T05:08:28.934Z,82.10
2019-03-16T05:10:57.525Z,82.00
2019-03-16T05:13:26.503Z,82.00
2019-03-16T05:15:55.068Z,81.90
2019-03-16T05:18:23.671Z,82.30
2019-03-16T05:20:52.250Z,82.00
2019-03-16T05:23:20.899Z,82.30
2019-03-16T05:25:49.586Z,82.50
2019-03-16T05:28:18.153Z,82.60
2019-03-16T05:30:46.708Z,82.70
2019-03-16T05:33:15.382Z,82.90
2019-03-16T05:35:44.026Z,82.90
2019-03-16T05:38:12.673Z,82.70
2019-03-16T05:40:41.329Z,82.80
2019-03-16T05:43:09.964Z,83.70
2019-03-16T05:45:38.641Z,83.60
2019-03-16T05:48:07.232Z,84.10
2019-03-16T05:50:35.795Z,83.90
2019-03-16T05:53:04.480Z,83.80
2019-03-16T05:55:33.105Z,82.80
2019-03-16T05:58:01.811Z,82.40
2019-03-16T06:00:30.460Z,82.20
2019-03-16T06:02:59.109Z,82.00
2019-03-16T06:05:27.764Z,82.80
2019-03-16T06:07:56.355Z,81.40
2019-03-16T06:10:25.040Z,80.60
2019-03-16T06:12:53.619Z,80.30
2019-03-16T06:15:22.272Z,79.70
2019-03-16T06:17:50.895Z,79.30
2019-03-16T06:20:19.469Z,78.80
2019-03-16T06:22:48.152Z,77.90
2019-03-16T06:25:16.797Z,77.10
2019-03-16T06:27:45.452Z,76.40
2019-03-16T06:30:15.618Z,75.10
2019-03-16T06:32:44.254Z,73.40
2019-03-16T06:35:24.043Z,71.50
2019-03-16T06:37:43.168Z,68.90
2019-03-16T06:40:12.226Z,66.90
2019-03-16T06:42:40.919Z,65.70
2019-03-16T06:45:11.050Z,64.90
2019-03-16T06:47:39.731Z,63.60
2019-03-16T06:50:15.773Z,62.30
2019-03-16T06:52:44.394Z,60.40
2019-03-16T06:55:13.033Z,59.30
2019-03-16T06:57:41.629Z,57.20
2019-03-16T07:00:17.983Z,55.20
2019-03-16T07:02:46.638Z,54.30
2019-03-16T07:05:15.240Z,54.60
2019-03-16T07:07:43.888Z,55.00
2019-03-16T07:10:13.638Z,54.50
2019-03-16T07:12:42.358Z,52.60
2019-03-16T07:15:12.214Z,52.30
2019-03-16T07:17:40.816Z,53.00
2019-03-16T07:20:11.178Z,53.40
2019-03-16T07:22:39.765Z,55.60
2019-03-16T07:25:08.458Z,53.40
2019-03-16T07:27:37.104Z,51.40
2019-03-16T07:30:11.426Z,49.80
2019-03-16T07:32:40.069Z,49.30
2019-03-16T07:35:08.810Z,47.30
2019-03-16T07:37:37.354Z,46.00
2019-03-16T07:40:08.898Z,46.00
2019-03-16T07:42:37.568Z,45.10
2019-03-16T07:45:09.387Z,43.30
2019-03-16T07:47:38.090Z,42.20
2019-03-16T07:50:08.826Z,39.50
2019-03-16T07:52:37.509Z,41.20
2019-03-16T07:55:08.146Z,41.60
2019-03-16T07:57:40.525Z,40.60
2019-03-16T08:00:11.961Z,37.90
2019-03-16T08:02:40.596Z,36.40
2019-03-16T08:05:18.195Z,35.10
2019-03-16T08:07:39.621Z,34.10
2019-03-16T08:10:10.612Z,34.20
2019-03-16T08:12:39.286Z,35.90
2019-03-16T08:15:09.534Z,37.40
2019-03-16T08:17:38.203Z,36.70
2019-03-16T08:20:09.095Z,35.30
2019-03-16T08:22:37.798Z,33.30
2019-03-16T08:25:07.600Z,33.30
2019-03-16T08:27:36.236Z,32.10
2019-03-16T08:30:08.121Z,32.40
2019-03-16T08:32:36.758Z,32.10
2019-03-16T08:35:06.737Z,30.00
2019-03-16T08:37:35.420Z,29.80
2019-03-16T08:40:06.382Z,29.40
2019-03-16T08:42:35.271Z,30.40
2019-03-16T08:45:08.869Z,29.60
2019-03-16T08:47:37.552Z,29.40
2019-03-16T08:50:08.041Z,30.00
2019-03-16T08:52:36.666Z,28.60
2019-03-16T08:55:07.241Z,27.90
2019-03-16T08:57:35.827Z,27.70
2019-03-16T09:00:07.368Z,27.80
2019-03-16T09:02:36.028Z,27.20
2019-03-16T09:05:06.022Z,27.40
2019-03-16T09:07:34.515Z,26.70
2019-03-16T09:10:03.203Z,27.00
2019-03-16T09:12:31.844Z,26.50
2019-03-16T09:15:00.526Z,26.10
2019-03-16T09:17:29.211Z,27.80
2019-03-16T09:19:57.864Z,28.10
2019-03-16T09:22:29.513Z,27.80
2019-03-16T09:24:56.773Z,26.70
2019-03-16T09:27:31.073Z,26.00
2019-03-16T09:29:55.702Z,26.40
2019-03-16T09:32:24.345Z,26.50
2019-03-16T09:34:55.518Z,26.30
2019-03-16T09:37:24.144Z,25.70
2019-03-16T09:39:52.843Z,26.40
2019-03-16T09:42:21.501Z,26.40
2019-03-16T09:44:50.153Z,25.30
2019-03-16T09:47:18.816Z,24.70
2019-03-16T09:49:47.438Z,24.60
2019-03-16T09:52:16.070Z,24.40
2019-03-16T09:54:44.704Z,25.30
2019-03-16T09:57:13.352Z,24.50
2019-03-16T09:59:42.017Z,24.20
2019-03-16T10:02:10.669Z,25.10
2019-03-16T10:04:39.366Z,26.30
2019-03-16T10:07:08.010Z,26.80
2019-03-16T10:09:36.647Z,27.20
2019-03-16T10:12:05.333Z,27.00
2019-03-16T10:14:37.022Z,26.60
2019-03-16T10:17:04.198Z,26.00
2019-03-16T10:19:32.834Z,25.60
2019-03-16T10:22:01.471Z,24.70
2019-03-16T10:24:30.086Z,25.80
2019-03-16T10:26:59.638Z,25.60
2019-03-16T10:29:28.217Z,25.20
2019-03-16T10:31:56.790Z,25.90
2019-03-16T10:34:25.439Z,25.50
2019-03-16T10:36:54.103Z,26.00
2019-03-16T10:39:22.751Z,25.50
2019-03-16T10:41:51.446Z,25.60
2019-03-16T10:44:20.107Z,25.90
2019-03-16T10:46:48.758Z,26.70
2019-03-16T10:49:17.425Z,25.80
2019-03-16T10:51:46.870Z,24.60
2019-03-16T10:54:15.561Z,24.80
2019-03-16T10:56:44.217Z,25.40
2019-03-16T10:59:12.726Z,25.30
2019-03-16T11:01:41.412Z,24.90
2019-03-16T11:04:10.083Z,24.50
2019-03-16T11:06:38.771Z,24.30
2019-03-16T11:09:07.404Z,23.90
2019-03-16T11:11:36.054Z,24.30
2019-03-16T11:14:04.952Z,24.30
2019-03-16T11:16:33.606Z,24.70
2019-03-16T11:19:02.308Z,24.80
2019-03-16T11:21:30.942Z,24.60
2019-03-16T11:23:59.518Z,23.30
2019-03-16T11:26:28.125Z,23.10
2019-03-16T11:29:04.536Z,23.40
2019-03-16T11:31:27.092Z,23.30
2019-03-16T11:33:55.742Z,23.30
2019-03-16T11:36:24.349Z,24.40
2019-03-16T11:38:52.931Z,26.10
2019-03-16T11:41:21.570Z,25.80
2019-03-16T11:43:50.178Z,24.60
2019-03-16T11:46:18.827Z,25.00
2019-03-16T11:48:47.517Z,26.00
2019-03-16T11:51:16.084Z,26.70
2019-03-16T11:53:44.750Z,26.60
2019-03-16T11:56:18.331Z,27.50
2019-03-16T11:58:43.663Z,27.90
2019-03-16T12:01:12.363Z,27.20
2019-03-16T12:03:40.934Z,28.30
2019-03-16T12:06:09.598Z,28.80
2019-03-16T12:08:39.716Z,28.00
2019-03-16T12:11:08.556Z,28.70
2019-03-16T12:13:37.266Z,30.20
2019-03-16T12:16:05.906Z,32.00
2019-03-16T12:18:41.771Z,32.30
2019-03-16T12:21:10.445Z,32.20
2019-03-16T12:23:39.021Z,34.10
2019-03-16T12:26:10.605Z,36.40
2019-03-16T12:28:39.169Z,36.00
2019-03-16T12:31:07.764Z,36.20
2019-03-16T12:33:36.452Z,36.20
2019-03-16T12:36:05.017Z,37.10
2019-03-16T12:38:34.018Z,37.30
2019-03-16T12:41:02.579Z,35.80
2019-03-16T12:43:31.225Z,35.70
2019-03-16T12:45:59.930Z,35.00
2019-03-16T12:48:28.547Z,35.80
2019-03-16T12:50:57.100Z,36.50
2019-03-16T12:53:25.746Z,36.60
2019-03-16T12:55:54.400Z,37.30
2019-03-16T12:58:23.078Z,38.20
2019-03-16T13:00:51.653Z,37.10
2019-03-16T13:03:20.347Z,37.10
2019-03-16T13:05:48.991Z,36.90
2019-03-16T13:08:17.573Z,37.70
2019-03-16T13:10:46.387Z,37.40
2019-03-16T13:13:15.029Z,37.20
2019-03-16T13:15:43.675Z,37.60
2019-03-16T13:18:12.313Z,39.20
2019-03-16T13:20:40.906Z,38.80
2019-03-16T13:23:09.626Z,38.90
2019-03-16T13:25:38.269Z,39.40
2019-03-16T13:28:06.970Z,39.60
2019-03-16T13:30:35.787Z,40.00
2019-03-16T13:33:04.350Z,40.60
2019-03-16T13:35:32.936Z,40.40
2019-03-16T13:38:01.518Z,39.90
2019-03-16T13:40:30.212Z,40.10
2019-03-16T13:42:58.859Z,40.10
2019-03-16T13:45:27.505Z,39.40
2019-03-16T13:47:56.195Z,39.80
2019-03-16T13:50:24.847Z,39.30
2019-03-16T13:52:53.856Z,39.60
2019-03-16T13:55:22.417Z,39.90
2019-03-16T13:57:51.056Z,40.00
2019-03-16T14:00:23.084Z,39.50
2019-03-16T14:02:51.740Z,39.70
2019-03-16T14:05:20.309Z,39.70
2019-03-16T14:07:48.914Z,39.20
2019-03-16T14:10:29.326Z,39.20
2019-03-16T14:12:57.988Z,38.80
2019-03-16T14:15:26.569Z,38.60
2019-03-16T14:17:57.874Z,38.60
2019-03-16T14:20:25.491Z,39.10
2019-03-16T14:22:54.574Z,38.60
2019-03-16T14:25:23.231Z,38.00
2019-03-16T14:27:51.878Z,37.60
2019-03-16T14:30:39.379Z,37.50
2019-03-16T14:32:51.491Z,37.20
2019-03-16T14:35:20.131Z,37.60
2019-03-16T14:37:48.794Z,38.30
2019-03-16T14:40:17.465Z,37.40
2019-03-16T14:42:46.150Z,38.50
2019-03-16T14:45:16.099Z,38.00
2019-03-16T14:47:44.754Z,37.60
2019-03-16T14:50:19.348Z,38.30
2019-03-16T14:52:48.009Z,39.30
2019-03-16T14:55:16.698Z,39.30
2019-03-16T14:57:45.344Z,39.50
2019-03-16T15:00:15.848Z,40.20
2019-03-16T15:02:46.290Z,40.20
2019-03-16T15:05:14.743Z,39.90
2019-03-16T15:07:43.388Z,39.80
2019-03-16T15:10:15.890Z,40.00
2019-03-16T15:12:44.537Z,40.50
2019-03-16T15:15:23.503Z,40.30
2019-03-16T15:17:52.087Z,40.20
2019-03-16T15:20:20.692Z,40.30
2019-03-16T15:22:49.344Z,40.40
2019-03-16T15:25:17.976Z,40.50
2019-03-16T15:27:46.658Z,40.30
2019-03-16T15:30:19.413Z,40.70
2019-03-16T15:32:48.419Z,40.70
2019-03-16T15:35:17.052Z,40.80
2019-03-16T15:37:45.659Z,40.30
2019-03-16T15:40:15.523Z,40.90
2019-03-16T15:42:44.175Z,40.90
2019-03-16T15:45:18.712Z,40.80
2019-03-16T15:47:47.361Z,41.00
2019-03-16T15:50:16.006Z,41.20
2019-03-16T15:52:44.684Z,41.60
2019-03-16T15:55:13.326Z,42.20
2019-03-16T15:57:42.811Z,42.90
2019-03-16T16:00:17.029Z,43.20
2019-03-16T16:02:45.732Z,43.60
2019-03-16T16:05:14.359Z,43.60
2019-03-16T16:07:43.012Z,43.50
2019-03-16T16:10:17.454Z,43.30
2019-03-16T16:12:46.087Z,43.50
2019-03-16T16:15:14.786Z,43.80
2019-03-16T16:17:43.370Z,43.90
2019-03-16T16:20:17.157Z,44.20
2019-03-16T16:22:45.778Z,44.50
2019-03-16T16:25:14.812Z,44.80
2019-03-16T16:27:43.504Z,44.90
2019-03-16T16:30:16.827Z,45.30
2019-03-16T16:32:45.451Z,45.30
2019-03-16T16:35:15.144Z,45.60
2019-03-16T16:37:43.789Z,45.90
2019-03-16T16:40:16.789Z,46.50
2019-03-16T16:42:45.445Z,46.70
2019-03-16T16:45:15.393Z,47.00
2019-03-16T16:47:44.056Z,47.20
2019-03-16T16:50:22.851Z,47.20
2019-03-16T16:52:51.553Z,47.40
2019-03-16T16:55:20.194Z,47.80
2019-03-16T16:57:48.833Z,48.10
2019-03-16T17:00:21.631Z,48.70
2019-03-16T17:02:50.256Z,49.10
2019-03-16T17:05:18.963Z,49.50
2019-03-16T17:07:47.611Z,50.00
2019-03-16T17:10:16.968Z,50.20
2019-03-16T17:12:45.646Z,50.40
2019-03-16T17:15:17.059Z,50.60
2019-03-16T17:17:45.542Z,50.80
2019-03-16T17:20:15.375Z,51.10
2019-03-16T17:22:44.039Z,51.40
2019-03-16T17:25:13.726Z,51.70
2019-03-16T17:27:42.369Z,52.00
2019-03-16T17:30:14.840Z,53.00
2019-03-16T17:32:43.487Z,52.40
2019-03-16T17:35:12.171Z,52.70
2019-03-16T17:37:40.816Z,52.80
2019-03-16T17:40:14.381Z,52.70
2019-03-16T17:42:43.074Z,52.70
2019-03-16T17:45:12.995Z,52.60
2019-03-16T17:47:41.717Z,52.70
2019-03-16T17:50:11.872Z,52.90
2019-03-16T17:52:40.507Z,53.20
2019-03-16T17:55:16.367Z,53.20
2019-03-16T17:57:45.652Z,53.20
2019-03-16T18:00:16.181Z,53.30
2019-03-16T18:02:51.720Z,53.40
2019-03-16T18:05:16.052Z,53.40
2019-03-16T18:07:44.667Z,53.60
2019-03-16T18:10:14.310Z,53.70
2019-03-16T18:12:43.013Z,53.90
2019-03-16T18:15:13.823Z,53.80
2019-03-16T18:17:42.464Z,53.90
2019-03-16T18:20:17.964Z,54.10
2019-03-16T18:22:47.849Z,54.30
2019-03-16T18:25:16.736Z,54.50
2019-03-16T18:27:45.386Z,54.60
2019-03-16T18:30:24.668Z,54.90
2019-03-16T18:32:53.306Z,55.00
2019-03-16T18:35:21.977Z,55.20
2019-03-16T18:37:50.627Z,55.30
2019-03-16T18:40:19.191Z,55.40
2019-03-16T18:42:47.828Z,55.70
2019-03-16T18:45:18.620Z,55.70
2019-03-16T18:47:47.338Z,55.80
2019-03-16T18:50:15.975Z,56.00
2019-03-16T18:52:44.633Z,56.20
2019-03-16T18:55:13.703Z,56.50
2019-03-16T18:57:42.357Z,56.70
2019-03-16T19:00:13.907Z,56.90
2019-03-16T19:02:42.566Z,57.10
2019-03-16T19:05:11.249Z,57.50
2019-03-16T19:07:39.906Z,57.70
2019-03-16T19:10:14.610Z,57.90
2019-03-16T19:12:43.681Z,58.00
2019-03-16T19:15:13.826Z,58.00
2019-03-16T19:17:42.506Z,58.20
2019-03-16T19:20:15.283Z,58.40
2019-03-16T19:22:43.934Z,58.70
2019-03-16T19:25:14.791Z,59.10
2019-03-16T19:27:43.438Z,59.40
2019-03-16T19:30:16.532Z,59.50
2019-03-16T19:32:45.174Z,59.70
2019-03-16T19:35:13.848Z,59.90
2019-03-16T19:37:42.574Z,60.10
2019-03-16T19:40:21.653Z,60.10
2019-03-16T19:42:50.266Z,59.90
2019-03-16T19:45:18.988Z,60.00
2019-03-16T19:47:47.609Z,60.30
2019-03-16T19:50:16.878Z,60.80
2019-03-16T19:52:45.524Z,61.30
2019-03-16T19:55:15.062Z,61.40
2019-03-16T19:57:43.776Z,61.40
2019-03-16T20:00:14.292Z,62.20
2019-03-16T20:02:50.186Z,61.80
2019-03-16T20:05:13.675Z,61.30
2019-03-16T20:07:42.318Z,61.00
2019-03-16T20:10:19.120Z,61.40
2019-03-16T20:12:47.799Z,62.10
2019-03-16T20:15:16.700Z,62.50
2019-03-16T20:17:45.334Z,62.40
2019-03-16T20:20:17.577Z,61.90
2019-03-16T20:22:45.307Z,61.70
2019-03-16T20:25:13.997Z,61.90
2019-03-16T20:27:42.665Z,61.90
2019-03-16T20:30:15.229Z,61.70
2019-03-16T20:32:43.914Z,61.50
2019-03-16T20:35:12.478Z,61.80
2019-03-16T20:37:41.027Z,62.20
2019-03-16T20:40:17.377Z,62.10
2019-03-16T20:42:46.105Z,62.30
2019-03-16T20:45:14.876Z,62.40
2019-03-16T20:47:43.796Z,62.50
2019-03-16T20:50:14.676Z,63.00
2019-03-16T20:52:43.252Z,63.10
2019-03-16T20:55:11.947Z,62.90
2019-03-16T20:57:40.585Z,63.00
2019-03-16T21:00:14.328Z,63.20
2019-03-16T21:02:43.172Z,63.10
2019-03-16T21:05:11.953Z,63.00
2019-03-16T21:07:40.574Z,63.30
2019-03-16T21:10:10.822Z,63.60
2019-03-16T21:12:39.469Z,63.60
2019-03-16T21:15:13.474Z,64.00
2019-03-16T21:17:42.111Z,63.80
2019-03-16T21:20:14.826Z,63.90
2019-03-16T21:22:43.484Z,64.20
2019-03-16T21:25:13.715Z,64.60
2019-03-16T21:27:42.394Z,64.40
2019-03-16T21:30:19.416Z,64.70
2019-03-16T21:32:47.989Z,65.10
2019-03-16T21:35:16.643Z,65.20
2019-03-16T21:37:45.309Z,65.70
2019-03-16T21:40:15.043Z,66.20
2019-03-16T21:42:43.741Z,66.50
2019-03-16T21:45:13.497Z,66.70
2019-03-16T21:47:42.145Z,66.80
2019-03-16T21:50:12.235Z,66.70
2019-03-16T21:52:44.036Z,67.00
2019-03-16T21:55:12.414Z,67.10
2019-03-16T21:57:40.985Z,67.40
2019-03-16T22:00:13.753Z,68.00
2019-03-16T22:02:42.449Z,67.90
2019-03-16T22:05:11.013Z,68.00
2019-03-16T22:07:39.583Z,68.20
2019-03-16T22:10:15.855Z,68.20
2019-03-16T22:12:44.553Z,68.10
2019-03-16T22:15:14.504Z,68.00
2019-03-16T22:17:43.141Z,68.40
2019-03-16T22:20:18.901Z,68.00
2019-03-16T22:22:47.521Z,68.00
2019-03-16T22:25:16.233Z,68.00
2019-03-16T22:27:44.816Z,68.30
2019-03-16T22:30:15.771Z,68.20
2019-03-16T22:32:44.480Z,68.50
2019-03-16T22:35:13.131Z,68.00
2019-03-16T22:37:41.836Z,68.00
2019-03-16T22:40:14.195Z,68.10
2019-03-16T22:42:42.855Z,68.10
2019-03-16T22:45:15.004Z,68.50
2019-03-16T22:47:43.007Z,68.70
2019-03-16T22:50:14.264Z,69.30
2019-03-16T22:52:42.895Z,69.50
2019-03-16T22:55:11.474Z,69.00
2019-03-16T22:57:43.203Z,68.80
2019-03-16T23:00:19.054Z,69.00
2019-03-16T23:02:47.673Z,68.90
2019-03-16T23:05:16.240Z,68.90
2019-03-16T23:07:44.876Z,68.80
2019-03-16T23:10:13.543Z,68.70
2019-03-16T23:12:42.180Z,68.60
2019-03-16T23:15:12.423Z,69.00
2019-03-16T23:17:41.093Z,69.60
2019-03-16T23:20:10.337Z,69.90
2019-03-16T23:22:39.006Z,70.00
2019-03-16T23:25:08.963Z,70.40
2019-03-16T23:27:37.677Z,70.50
2019-03-16T23:30:10.005Z,70.70
2019-03-16T23:32:38.664Z,71.00
2019-03-16T23:35:08.649Z,71.50
2019-03-16T23:37:37.303Z,71.60
2019-03-16T23:40:13.620Z,71.70
2019-03-16T23:42:42.266Z,72.00
2019-03-16T23:45:12.605Z,72.20
2019-03-16T23:47:41.244Z,72.50
2019-03-16T23:50:10.884Z,72.60
2019-03-16T23:52:39.492Z,72.90
2019-03-16T23:55:09.429Z,73.10
2019-03-16T23:57:38.139Z,73.60
